sensor_id;sensor_type;location;lat;lon;timestamp;P1;durP1;ratioP1;P2;durP2;ratioP2
1174;SDS011;576;48.418;10.074;2024-03-02T00:01:12;3.57;;;2.30;;
1174;SDS011;576;48.418;10.074;2024-03-02T00:03:40;2.53;;;1.77;;
1174;SDS011;576;48.418;10.074;2024-03-02T00:06:10;3.93;;;2.00;;
1174;SDS011;576;48.418;10.074;2024-03-02T00:08:38;2.27;;;1.93;;
1174;SDS011;576;48.418;10.074;2024-03-02T00:11:07;2.40;;;2.20;;
1174;SDS011;576;48.418;10.074;2024-03-02T00:13:37;1.73;;;1.63;;
1174;SDS011;576;48.418;10.074;2024-03-02T00:16:07;1.90;;;1.80;;
1174;SDS011;576;48.418;10.074;2024-03-02T00:18:35;2.10;;;1.90;;
1174;SDS011;576;48.418;10.074;2024-03-02T00:21:05;3.20;;;1.90;;
1174;SDS011;576;48.418;10.074;2024-03-02T00:23:36;2.30;;;2.10;;
1174;SDS011;576;48.418;10.074;2024-03-02T00:26:05;1.97;;;1.87;;
1174;SDS011;576;48.418;10.074;2024-03-02T00:28:35;2.50;;;1.80;;
1174;SDS011;576;48.418;10.074;2024-03-02T00:31:05;2.87;;;2.10;;
1174;SDS011;576;48.418;10.074;2024-03-02T00:33:39;4.10;;;2.17;;
1174;SDS011;576;48.418;10.074;2024-03-02T00:36:09;2.10;;;1.90;;
1174;SDS011;576;48.418;10.074;2024-03-02T00:38:42;3.37;;;3.07;;
1174;SDS011;576;48.418;10.074;2024-03-02T00:41:18;2.63;;;2.20;;
1174;SDS011;576;48.418;10.074;2024-03-02T00:43:59;1.87;;;1.77;;
1174;SDS011;576;48.418;10.074;2024-03-02T00:46:32;2.27;;;2.07;;
1174;SDS011;576;48.418;10.074;2024-03-02T00:49:02;3.07;;;2.47;;
1174;SDS011;576;48.418;10.074;2024-03-02T00:51:32;3.23;;;2.50;;
1174;SDS011;576;48.418;10.074;2024-03-02T00:54:02;2.30;;;2.10;;
1174;SDS011;576;48.418;10.074;2024-03-02T00:56:32;2.20;;;2.10;;
1174;SDS011;576;48.418;10.074;2024-03-02T00:59:02;1.93;;;1.77;;
1174;SDS011;576;48.418;10.074;2024-03-02T01:01:31;2.00;;;1.90;;
1174;SDS011;576;48.418;10.074;2024-03-02T01:04:00;2.00;;;1.90;;
1174;SDS011;576;48.418;10.074;2024-03-02T01:06:28;2.57;;;1.90;;
1174;SDS011;576;48.418;10.074;2024-03-02T01:08:56;2.60;;;2.30;;
1174;SDS011;576;48.418;10.074;2024-03-02T01:11:25;2.47;;;2.27;;
1174;SDS011;576;48.418;10.074;2024-03-02T01:13:53;4.53;;;2.30;;
1174;SDS011;576;48.418;10.074;2024-03-02T01:16:21;6.00;;;1.83;;
1174;SDS011;576;48.418;10.074;2024-03-02T01:18:51;2.33;;;1.80;;
1174;SDS011;576;48.418;10.074;2024-03-02T01:21:19;2.80;;;2.47;;
1174;SDS011;576;48.418;10.074;2024-03-02T01:23:47;2.37;;;2.20;;
1174;SDS011;576;48.418;10.074;2024-03-02T01:26:16;2.77;;;1.83;;
1174;SDS011;576;48.418;10.074;2024-03-02T01:28:44;4.73;;;2.23;;
1174;SDS011;576;48.418;10.074;2024-03-02T01:31:12;1.70;;;1.60;;
1174;SDS011;576;48.418;10.074;2024-03-02T01:33:40;2.63;;;2.43;;
1174;SDS011;576;48.418;10.074;2024-03-02T01:36:10;1.90;;;1.80;;
1174;SDS011;576;48.418;10.074;2024-03-02T01:38:38;2.60;;;2.40;;
1174;SDS011;576;48.418;10.074;2024-03-02T01:41:06;2.40;;;2.27;;
1174;SDS011;576;48.418;10.074;2024-03-02T01:43:35;2.40;;;2.30;;
1174;SDS011;576;48.418;10.074;2024-03-02T01:46:07;1.67;;;1.57;;
1174;SDS011;576;48.418;10.074;2024-03-02T01:48:35;2.20;;;2.00;;
1174;SDS011;576;48.418;10.074;2024-03-02T01:51:04;2.93;;;2.33;;
1174;SDS011;576;48.418;10.074;2024-03-02T01:53:35;2.40;;;2.20;;
1174;SDS011;576;48.418;10.074;2024-03-02T01:56:03;2.40;;;2.20;;
1174;SDS011;576;48.418;10.074;2024-03-02T01:58:32;2.90;;;2.47;;
1174;SDS011;576;48.418;10.074;2024-03-02T02:01:00;1.97;;;1.83;;
1174;SDS011;576;48.418;10.074;2024-03-02T02:03:28;1.90;;;1.80;;
1174;SDS011;576;48.418;10.074;2024-03-02T02:05:56;2.27;;;2.17;;
1174;SDS011;576;48.418;10.074;2024-03-02T02:08:25;2.03;;;1.93;;
1174;SDS011;576;48.418;10.074;2024-03-02T02:10:55;4.40;;;2.47;;
1174;SDS011;576;48.418;10.074;2024-03-02T02:13:23;2.20;;;2.00;;
1174;SDS011;576;48.418;10.074;2024-03-02T02:15:51;2.30;;;2.10;;
1174;SDS011;576;48.418;10.074;2024-03-02T02:18:20;2.40;;;2.20;;
1174;SDS011;576;48.418;10.074;2024-03-02T02:20:48;2.80;;;2.60;;
1174;SDS011;576;48.418;10.074;2024-03-02T02:23:18;2.13;;;2.03;;
1174;SDS011;576;48.418;10.074;2024-03-02T02:25:46;2.63;;;2.37;;
1174;SDS011;576;48.418;10.074;2024-03-02T02:28:14;2.40;;;2.20;;
1174;SDS011;576;48.418;10.074;2024-03-02T02:30:43;2.10;;;1.90;;
1174;SDS011;576;48.418;10.074;2024-03-02T02:33:11;3.03;;;2.63;;
1174;SDS011;576;48.418;10.074;2024-03-02T02:35:40;2.10;;;2.00;;
1174;SDS011;576;48.418;10.074;2024-03-02T02:38:08;1.90;;;1.80;;
1174;SDS011;576;48.418;10.074;2024-03-02T02:40:38;2.47;;;2.30;;
1174;SDS011;576;48.418;10.074;2024-03-02T02:43:06;2.43;;;2.30;;
1174;SDS011;576;48.418;10.074;2024-03-02T02:45:36;2.07;;;1.97;;
1174;SDS011;576;48.418;10.074;2024-03-02T02:48:04;2.43;;;2.23;;
1174;SDS011;576;48.418;10.074;2024-03-02T02:50:33;1.70;;;1.50;;
1174;SDS011;576;48.418;10.074;2024-03-02T02:53:01;1.97;;;1.83;;
1174;SDS011;576;48.418;10.074;2024-03-02T02:55:29;2.83;;;2.63;;
1174;SDS011;576;48.418;10.074;2024-03-02T02:57:59;2.40;;;2.20;;
1174;SDS011;576;48.418;10.074;2024-03-02T03:00:27;2.10;;;2.00;;
1174;SDS011;576;48.418;10.074;2024-03-02T03:02:56;2.13;;;2.03;;
1174;SDS011;576;48.418;10.074;2024-03-02T03:05:24;2.00;;;1.90;;
1174;SDS011;576;48.418;10.074;2024-03-02T03:07:52;2.43;;;2.23;;
1174;SDS011;576;48.418;10.074;2024-03-02T03:10:20;2.60;;;2.40;;
1174;SDS011;576;48.418;10.074;2024-03-02T03:12:49;2.30;;;2.13;;
1174;SDS011;576;48.418;10.074;2024-03-02T03:15:19;2.53;;;2.33;;
1174;SDS011;576;48.418;10.074;2024-03-02T03:17:48;2.80;;;2.60;;
1174;SDS011;576;48.418;10.074;2024-03-02T03:20:17;2.20;;;2.10;;
1174;SDS011;576;48.418;10.074;2024-03-02T03:22:48;2.40;;;2.30;;
1174;SDS011;576;48.418;10.074;2024-03-02T03:25:16;2.40;;;2.20;;
1174;SDS011;576;48.418;10.074;2024-03-02T03:27:44;2.70;;;2.50;;
1174;SDS011;576;48.418;10.074;2024-03-02T03:30:12;2.30;;;2.10;;
1174;SDS011;576;48.418;10.074;2024-03-02T03:32:43;2.77;;;2.57;;
1174;SDS011;576;48.418;10.074;2024-03-02T03:35:11;2.20;;;2.10;;
1174;SDS011;576;48.418;10.074;2024-03-02T03:37:41;2.20;;;2.00;;
1174;SDS011;576;48.418;10.074;2024-03-02T03:40:09;2.20;;;2.10;;
1174;SDS011;576;48.418;10.074;2024-03-02T03:42:38;3.20;;;2.20;;
1174;SDS011;576;48.418;10.074;2024-03-02T03:45:07;3.70;;;2.40;;
1174;SDS011;576;48.418;10.074;2024-03-02T03:47:35;2.53;;;2.33;;
1174;SDS011;576;48.418;10.074;2024-03-02T03:50:06;2.40;;;2.20;;
1174;SDS011;576;48.418;10.074;2024-03-02T03:52:34;2.50;;;2.40;;
1174;SDS011;576;48.418;10.074;2024-03-02T03:55:03;2.67;;;2.47;;
1174;SDS011;576;48.418;10.074;2024-03-02T03:57:32;2.13;;;2.03;;
1174;SDS011;576;48.418;10.074;2024-03-02T04:00:01;2.30;;;2.10;;
1174;SDS011;576;48.418;10.074;2024-03-02T04:02:37;2.67;;;2.17;;
1174;SDS011;576;48.418;10.074;2024-03-02T04:05:07;2.63;;;2.30;;
1174;SDS011;576;48.418;10.074;2024-03-02T04:07:38;2.83;;;2.40;;
1174;SDS011;576;48.418;10.074;2024-03-02T04:10:07;2.03;;;1.90;;
1174;SDS011;576;48.418;10.074;2024-03-02T04:12:36;2.10;;;1.90;;
1174;SDS011;576;48.418;10.074;2024-03-02T04:15:05;2.70;;;2.17;;
1174;SDS011;576;48.418;10.074;2024-03-02T04:17:34;2.47;;;2.27;;
1174;SDS011;576;48.418;10.074;2024-03-02T04:20:03;2.07;;;1.97;;
1174;SDS011;576;48.418;10.074;2024-03-02T04:22:34;1.90;;;1.80;;
1174;SDS011;576;48.418;10.074;2024-03-02T04:25:03;2.47;;;2.27;;
1174;SDS011;576;48.418;10.074;2024-03-02T04:27:33;2.30;;;2.10;;
1174;SDS011;576;48.418;10.074;2024-03-02T04:30:02;2.30;;;2.20;;
1174;SDS011;576;48.418;10.074;2024-03-02T04:32:33;2.03;;;1.83;;
1174;SDS011;576;48.418;10.074;2024-03-02T04:35:03;2.27;;;2.07;;
1174;SDS011;576;48.418;10.074;2024-03-02T04:37:31;2.60;;;2.40;;
1174;SDS011;576;48.418;10.074;2024-03-02T04:40:02;2.00;;;1.90;;
1174;SDS011;576;48.418;10.074;2024-03-02T04:42:34;2.87;;;2.67;;
1174;SDS011;576;48.418;10.074;2024-03-02T04:45:02;2.00;;;1.90;;
1174;SDS011;576;48.418;10.074;2024-03-02T04:47:31;2.60;;;2.40;;
1174;SDS011;576;48.418;10.074;2024-03-02T04:49:59;2.40;;;2.20;;
1174;SDS011;576;48.418;10.074;2024-03-02T04:52:27;2.40;;;2.00;;
1174;SDS011;576;48.418;10.074;2024-03-02T04:54:57;1.80;;;1.70;;
1174;SDS011;576;48.418;10.074;2024-03-02T04:57:45;2.80;;;2.60;;
1174;SDS011;576;48.418;10.074;2024-03-02T05:00:14;2.17;;;2.07;;
1174;SDS011;576;48.418;10.074;2024-03-02T05:02:43;2.20;;;2.10;;
1174;SDS011;576;48.418;10.074;2024-03-02T05:05:11;3.23;;;3.03;;
1174;SDS011;576;48.418;10.074;2024-03-02T05:07:41;2.10;;;2.00;;
1174;SDS011;576;48.418;10.074;2024-03-02T05:10:12;2.00;;;1.90;;
1174;SDS011;576;48.418;10.074;2024-03-02T05:12:41;2.00;;;1.90;;
1174;SDS011;576;48.418;10.074;2024-03-02T05:15:23;2.40;;;2.20;;
1174;SDS011;576;48.418;10.074;2024-03-02T05:17:51;3.10;;;2.90;;
1174;SDS011;576;48.418;10.074;2024-03-02T05:20:20;2.00;;;1.90;;
1174;SDS011;576;48.418;10.074;2024-03-02T05:22:48;2.07;;;1.97;;
1174;SDS011;576;48.418;10.074;2024-03-02T05:25:18;2.30;;;2.20;;
1174;SDS011;576;48.418;10.074;2024-03-02T05:27:46;1.90;;;1.80;;
1174;SDS011;576;48.418;10.074;2024-03-02T05:30:14;2.03;;;1.93;;
1174;SDS011;576;48.418;10.074;2024-03-02T05:32:43;2.03;;;1.90;;
1174;SDS011;576;48.418;10.074;2024-03-02T05:35:11;2.37;;;2.17;;
1174;SDS011;576;48.418;10.074;2024-03-02T05:37:39;2.00;;;1.90;;
1174;SDS011;576;48.418;10.074;2024-03-02T05:40:08;1.87;;;1.77;;
1174;SDS011;576;48.418;10.074;2024-03-02T05:42:39;2.50;;;2.30;;
1174;SDS011;576;48.418;10.074;2024-03-02T05:45:08;3.47;;;2.47;;
1174;SDS011;576;48.418;10.074;2024-03-02T05:47:36;1.67;;;1.57;;
1174;SDS011;576;48.418;10.074;2024-03-02T05:50:05;2.23;;;2.13;;
1174;SDS011;576;48.418;10.074;2024-03-02T05:52:34;2.13;;;1.93;;
1174;SDS011;576;48.418;10.074;2024-03-02T05:55:03;2.63;;;2.43;;
1174;SDS011;576;48.418;10.074;2024-03-02T05:57:31;2.47;;;2.27;;
1174;SDS011;576;48.418;10.074;2024-03-02T06:00:16;1.90;;;1.80;;
1174;SDS011;576;48.418;10.074;2024-03-02T06:02:45;2.10;;;2.00;;
1174;SDS011;576;48.418;10.074;2024-03-02T06:05:13;2.70;;;2.50;;
1174;SDS011;576;48.418;10.074;2024-03-02T06:07:41;2.10;;;2.00;;
1174;SDS011;576;48.418;10.074;2024-03-02T06:10:10;2.33;;;2.13;;
1174;SDS011;576;48.418;10.074;2024-03-02T06:12:40;1.97;;;1.87;;
1174;SDS011;576;48.418;10.074;2024-03-02T06:15:08;2.40;;;2.20;;
1174;SDS011;576;48.418;10.074;2024-03-02T06:17:38;2.40;;;2.30;;
1174;SDS011;576;48.418;10.074;2024-03-02T06:20:07;2.60;;;2.40;;
1174;SDS011;576;48.418;10.074;2024-03-02T06:22:36;2.40;;;2.20;;
1174;SDS011;576;48.418;10.074;2024-03-02T06:25:04;2.30;;;2.17;;
1174;SDS011;576;48.418;10.074;2024-03-02T06:27:33;1.93;;;1.83;;
1174;SDS011;576;48.418;10.074;2024-03-02T06:30:01;2.80;;;2.60;;
1174;SDS011;576;48.418;10.074;2024-03-02T06:32:30;1.90;;;1.80;;
1174;SDS011;576;48.418;10.074;2024-03-02T06:35:00;2.33;;;2.23;;
1174;SDS011;576;48.418;10.074;2024-03-02T06:37:28;2.43;;;2.23;;
1174;SDS011;576;48.418;10.074;2024-03-02T06:39:56;2.07;;;1.97;;
1174;SDS011;576;48.418;10.074;2024-03-02T06:42:25;2.17;;;2.07;;
1174;SDS011;576;48.418;10.074;2024-03-02T06:44:53;2.10;;;2.00;;
1174;SDS011;576;48.418;10.074;2024-03-02T06:47:22;1.80;;;1.70;;
1174;SDS011;576;48.418;10.074;2024-03-02T06:49:50;2.47;;;2.27;;
1174;SDS011;576;48.418;10.074;2024-03-02T06:52:21;2.13;;;2.03;;
1174;SDS011;576;48.418;10.074;2024-03-02T06:54:50;2.60;;;2.40;;
1174;SDS011;576;48.418;10.074;2024-03-02T06:57:19;2.27;;;2.17;;
1174;SDS011;576;48.418;10.074;2024-03-02T06:59:47;2.37;;;2.27;;
1174;SDS011;576;48.418;10.074;2024-03-02T07:02:17;2.50;;;2.30;;
1174;SDS011;576;48.418;10.074;2024-03-02T07:04:46;2.60;;;2.40;;
1174;SDS011;576;48.418;10.074;2024-03-02T07:07:15;2.77;;;2.57;;
1174;SDS011;576;48.418;10.074;2024-03-02T07:09:44;2.03;;;1.93;;
1174;SDS011;576;48.418;10.074;2024-03-02T07:12:13;1.97;;;1.87;;
1174;SDS011;576;48.418;10.074;2024-03-02T07:14:41;2.43;;;2.30;;
1174;SDS011;576;48.418;10.074;2024-03-02T07:17:34;1.83;;;1.73;;
1174;SDS011;576;48.418;10.074;2024-03-02T07:20:04;2.00;;;1.90;;
1174;SDS011;576;48.418;10.074;2024-03-02T07:22:33;2.17;;;1.97;;
1174;SDS011;576;48.418;10.074;2024-03-02T07:25:03;1.87;;;1.77;;
1174;SDS011;576;48.418;10.074;2024-03-02T07:27:33;2.10;;;2.00;;
1174;SDS011;576;48.418;10.074;2024-03-02T07:30:02;1.80;;;1.70;;
1174;SDS011;576;48.418;10.074;2024-03-02T07:32:30;2.23;;;2.13;;
1174;SDS011;576;48.418;10.074;2024-03-02T07:34:59;2.57;;;2.37;;
1174;SDS011;576;48.418;10.074;2024-03-02T07:37:27;1.93;;;1.83;;
1174;SDS011;576;48.418;10.074;2024-03-02T07:39:55;1.83;;;1.73;;
1174;SDS011;576;48.418;10.074;2024-03-02T07:42:26;2.30;;;2.20;;
1174;SDS011;576;48.418;10.074;2024-03-02T07:44:54;2.03;;;1.93;;
1174;SDS011;576;48.418;10.074;2024-03-02T07:47:22;2.00;;;1.90;;
1174;SDS011;576;48.418;10.074;2024-03-02T07:49:51;1.90;;;1.80;;
1174;SDS011;576;48.418;10.074;2024-03-02T07:52:19;2.30;;;2.20;;
1174;SDS011;576;48.418;10.074;2024-03-02T07:54:47;2.33;;;2.13;;
1174;SDS011;576;48.418;10.074;2024-03-02T07:57:15;2.33;;;2.23;;
1174;SDS011;576;48.418;10.074;2024-03-02T07:59:45;2.00;;;1.90;;
1174;SDS011;576;48.418;10.074;2024-03-02T08:02:14;2.67;;;2.47;;
1174;SDS011;576;48.418;10.074;2024-03-02T08:04:42;1.87;;;1.77;;
1174;SDS011;576;48.418;10.074;2024-03-02T08:07:12;2.17;;;1.97;;
1174;SDS011;576;48.418;10.074;2024-03-02T08:09:40;2.50;;;2.30;;
1174;SDS011;576;48.418;10.074;2024-03-02T08:12:08;3.00;;;2.00;;
1174;SDS011;576;48.418;10.074;2024-03-02T08:14:37;2.10;;;2.00;;
1174;SDS011;576;48.418;10.074;2024-03-02T08:17:06;2.70;;;2.50;;
1174;SDS011;576;48.418;10.074;2024-03-02T08:19:36;3.00;;;2.43;;
1174;SDS011;576;48.418;10.074;2024-03-02T08:22:04;2.20;;;1.90;;
1174;SDS011;576;48.418;10.074;2024-03-02T08:24:33;1.90;;;1.80;;
1174;SDS011;576;48.418;10.074;2024-03-02T08:27:01;2.63;;;2.43;;
1174;SDS011;576;48.418;10.074;2024-03-02T08:29:29;2.40;;;2.27;;
1174;SDS011;576;48.418;10.074;2024-03-02T08:31:58;2.73;;;2.40;;
1174;SDS011;576;48.418;10.074;2024-03-02T08:34:28;1.80;;;1.70;;
1174;SDS011;576;48.418;10.074;2024-03-02T08:36:56;2.40;;;1.90;;
1174;SDS011;576;48.418;10.074;2024-03-02T08:39:24;2.67;;;2.03;;
1174;SDS011;576;48.418;10.074;2024-03-02T08:41:53;3.17;;;2.33;;
1174;SDS011;576;48.418;10.074;2024-03-02T08:44:21;6.10;;;2.80;;
1174;SDS011;576;48.418;10.074;2024-03-02T08:46:50;3.33;;;2.20;;
1174;SDS011;576;48.418;10.074;2024-03-02T08:49:18;5.80;;;2.30;;
1174;SDS011;576;48.418;10.074;2024-03-02T08:51:48;2.77;;;2.57;;
1174;SDS011;576;48.418;10.074;2024-03-02T08:54:21;8.57;;;2.93;;
1174;SDS011;576;48.418;10.074;2024-03-02T08:56:50;3.57;;;2.53;;
1174;SDS011;576;48.418;10.074;2024-03-02T08:59:18;2.87;;;2.50;;
1174;SDS011;576;48.418;10.074;2024-03-02T09:01:46;3.40;;;2.77;;
1174;SDS011;576;48.418;10.074;2024-03-02T09:04:15;3.87;;;3.27;;
1174;SDS011;576;48.418;10.074;2024-03-02T09:06:44;5.60;;;2.63;;
1174;SDS011;576;48.418;10.074;2024-03-02T09:09:13;7.60;;;2.43;;
1174;SDS011;576;48.418;10.074;2024-03-02T09:11:41;4.00;;;2.77;;
1174;SDS011;576;48.418;10.074;2024-03-02T09:14:10;7.00;;;2.80;;
1174;SDS011;576;48.418;10.074;2024-03-02T09:16:38;3.40;;;3.10;;
1174;SDS011;576;48.418;10.074;2024-03-02T09:19:06;3.63;;;2.77;;
1174;SDS011;576;48.418;10.074;2024-03-02T09:21:36;4.07;;;2.93;;
1174;SDS011;576;48.418;10.074;2024-03-02T09:24:04;6.23;;;2.80;;
1174;SDS011;576;48.418;10.074;2024-03-02T09:26:34;6.17;;;4.03;;
1174;SDS011;576;48.418;10.074;2024-03-02T09:29:03;7.83;;;3.10;;
1174;SDS011;576;48.418;10.074;2024-03-02T09:31:32;3.80;;;2.67;;
1174;SDS011;576;48.418;10.074;2024-03-02T09:34:00;6.73;;;3.30;;
1174;SDS011;576;48.418;10.074;2024-03-02T09:36:28;5.33;;;2.90;;
1174;SDS011;576;48.418;10.074;2024-03-02T09:38:57;5.53;;;3.20;;
1174;SDS011;576;48.418;10.074;2024-03-02T09:41:26;2.40;;;2.20;;
1174;SDS011;576;48.418;10.074;2024-03-02T09:43:56;4.90;;;2.40;;
1174;SDS011;576;48.418;10.074;2024-03-02T09:46:25;3.00;;;2.70;;
1174;SDS011;576;48.418;10.074;2024-03-02T09:48:53;6.20;;;2.67;;
1174;SDS011;576;48.418;10.074;2024-03-02T09:51:22;2.97;;;2.70;;
1174;SDS011;576;48.418;10.074;2024-03-02T09:53:51;3.87;;;2.90;;
1174;SDS011;576;48.418;10.074;2024-03-02T09:56:23;3.90;;;2.93;;
1174;SDS011;576;48.418;10.074;2024-03-02T09:58:51;14.40;;;3.30;;
1174;SDS011;576;48.418;10.074;2024-03-02T10:01:21;2.93;;;2.53;;
1174;SDS011;576;48.418;10.074;2024-03-02T10:03:49;3.43;;;2.93;;
1174;SDS011;576;48.418;10.074;2024-03-02T10:06:19;4.43;;;2.77;;
1174;SDS011;576;48.418;10.074;2024-03-02T10:08:48;7.17;;;2.40;;
1174;SDS011;576;48.418;10.074;2024-03-02T10:11:25;2.43;;;2.03;;
1174;SDS011;576;48.418;10.074;2024-03-02T10:14:05;4.63;;;3.10;;
1174;SDS011;576;48.418;10.074;2024-03-02T10:16:37;2.97;;;2.43;;
1174;SDS011;576;48.418;10.074;2024-03-02T10:19:15;3.93;;;2.40;;
1174;SDS011;576;48.418;10.074;2024-03-02T10:21:45;2.80;;;2.40;;
1174;SDS011;576;48.418;10.074;2024-03-02T10:24:14;4.93;;;3.10;;
1174;SDS011;576;48.418;10.074;2024-03-02T10:26:42;3.73;;;2.90;;
1174;SDS011;576;48.418;10.074;2024-03-02T10:29:10;2.77;;;2.50;;
1174;SDS011;576;48.418;10.074;2024-03-02T10:31:41;2.50;;;2.00;;
1174;SDS011;576;48.418;10.074;2024-03-02T10:34:12;2.77;;;2.57;;
1174;SDS011;576;48.418;10.074;2024-03-02T10:36:43;3.77;;;2.50;;
1174;SDS011;576;48.418;10.074;2024-03-02T10:39:13;3.40;;;2.50;;
1174;SDS011;576;48.418;10.074;2024-03-02T10:41:42;2.83;;;2.60;;
1174;SDS011;576;48.418;10.074;2024-03-02T10:44:13;3.37;;;2.73;;
1174;SDS011;576;48.418;10.074;2024-03-02T10:46:43;2.60;;;2.50;;
1174;SDS011;576;48.418;10.074;2024-03-02T10:49:13;5.90;;;2.87;;
1174;SDS011;576;48.418;10.074;2024-03-02T10:51:42;2.23;;;2.00;;
1174;SDS011;576;48.418;10.074;2024-03-02T10:54:10;3.17;;;2.20;;
1174;SDS011;576;48.418;10.074;2024-03-02T10:56:38;3.70;;;2.53;;
1174;SDS011;576;48.418;10.074;2024-03-02T11:01:57;5.43;;;2.20;;
1174;SDS011;576;48.418;10.074;2024-03-02T11:04:31;5.17;;;2.47;;
1174;SDS011;576;48.418;10.074;2024-03-02T11:07:02;2.60;;;2.37;;
1174;SDS011;576;48.418;10.074;2024-03-02T11:09:33;2.20;;;2.00;;
1174;SDS011;576;48.418;10.074;2024-03-02T11:12:03;4.20;;;2.13;;
1174;SDS011;576;48.418;10.074;2024-03-02T11:14:37;6.80;;;2.57;;
1174;SDS011;576;48.418;10.074;2024-03-02T11:17:11;4.83;;;2.53;;
1174;SDS011;576;48.418;10.074;2024-03-02T11:19:42;3.47;;;2.00;;
1174;SDS011;576;48.418;10.074;2024-03-02T11:22:12;4.25;;;2.45;;
1174;SDS011;576;48.418;10.074;2024-03-02T11:24:47;8.83;;;2.80;;
1174;SDS011;576;48.418;10.074;2024-03-02T11:27:58;2.50;;;2.30;;
1174;SDS011;576;48.418;10.074;2024-03-02T11:33:23;6.83;;;2.77;;
1174;SDS011;576;48.418;10.074;2024-03-02T11:35:57;5.07;;;2.67;;
1174;SDS011;576;48.418;10.074;2024-03-02T11:38:33;2.80;;;2.50;;
1174;SDS011;576;48.418;10.074;2024-03-02T11:41:02;2.97;;;2.10;;
1174;SDS011;576;48.418;10.074;2024-03-02T11:43:33;5.27;;;2.60;;
1174;SDS011;576;48.418;10.074;2024-03-02T11:46:06;2.37;;;2.17;;
1174;SDS011;576;48.418;10.074;2024-03-02T11:48:36;3.37;;;2.50;;
1174;SDS011;576;48.418;10.074;2024-03-02T11:51:06;4.70;;;2.70;;
1174;SDS011;576;48.418;10.074;2024-03-02T11:53:35;7.37;;;2.77;;
1174;SDS011;576;48.418;10.074;2024-03-02T11:56:06;6.47;;;2.70;;
1174;SDS011;576;48.418;10.074;2024-03-02T11:58:38;5.70;;;2.80;;
1174;SDS011;576;48.418;10.074;2024-03-02T12:01:08;6.93;;;5.13;;
1174;SDS011;576;48.418;10.074;2024-03-02T12:03:39;8.30;;;4.03;;
1174;SDS011;576;48.418;10.074;2024-03-02T12:06:07;8.30;;;3.40;;
1174;SDS011;576;48.418;10.074;2024-03-02T12:08:36;6.33;;;3.77;;
1174;SDS011;576;48.418;10.074;2024-03-02T12:11:04;4.27;;;3.67;;
1174;SDS011;576;48.418;10.074;2024-03-02T12:13:33;7.60;;;3.53;;
1174;SDS011;576;48.418;10.074;2024-03-02T12:16:01;4.60;;;3.47;;
1174;SDS011;576;48.418;10.074;2024-03-02T12:18:30;4.30;;;3.33;;
1174;SDS011;576;48.418;10.074;2024-03-02T12:21:00;5.80;;;3.43;;
1174;SDS011;576;48.418;10.074;2024-03-02T12:23:30;4.37;;;3.60;;
1174;SDS011;576;48.418;10.074;2024-03-02T12:25:58;4.83;;;3.33;;
1174;SDS011;576;48.418;10.074;2024-03-02T12:28:27;6.27;;;3.67;;
1174;SDS011;576;48.418;10.074;2024-03-02T12:30:57;3.63;;;2.93;;
1174;SDS011;576;48.418;10.074;2024-03-02T12:33:26;6.80;;;3.27;;
1174;SDS011;576;48.418;10.074;2024-03-02T12:35:56;6.50;;;3.37;;
1174;SDS011;576;48.418;10.074;2024-03-02T12:38:27;7.67;;;3.87;;
1174;SDS011;576;48.418;10.074;2024-03-02T12:40:56;4.50;;;3.47;;
1174;SDS011;576;48.418;10.074;2024-03-02T12:43:24;5.93;;;3.57;;
1174;SDS011;576;48.418;10.074;2024-03-02T12:45:56;6.60;;;3.77;;
1174;SDS011;576;48.418;10.074;2024-03-02T12:48:25;7.17;;;3.10;;
1174;SDS011;576;48.418;10.074;2024-03-02T12:50:54;3.40;;;3.10;;
1174;SDS011;576;48.418;10.074;2024-03-02T12:53:22;5.37;;;3.00;;
1174;SDS011;576;48.418;10.074;2024-03-02T12:55:52;5.63;;;3.27;;
1174;SDS011;576;48.418;10.074;2024-03-02T12:58:22;7.27;;;2.50;;
1174;SDS011;576;48.418;10.074;2024-03-02T13:00:55;5.27;;;2.93;;
1174;SDS011;576;48.418;10.074;2024-03-02T13:03:34;6.20;;;3.07;;
1174;SDS011;576;48.418;10.074;2024-03-02T13:06:04;4.40;;;2.77;;
1174;SDS011;576;48.418;10.074;2024-03-02T13:08:32;4.03;;;3.13;;
1174;SDS011;576;48.418;10.074;2024-03-02T13:11:03;10.73;;;4.10;;
1174;SDS011;576;48.418;10.074;2024-03-02T13:13:33;8.33;;;3.60;;
1174;SDS011;576;48.418;10.074;2024-03-02T13:16:02;4.57;;;3.93;;
1174;SDS011;576;48.418;10.074;2024-03-02T13:18:31;5.97;;;3.43;;
1174;SDS011;576;48.418;10.074;2024-03-02T13:21:00;2.97;;;2.63;;
1174;SDS011;576;48.418;10.074;2024-03-02T13:23:29;6.93;;;3.33;;
1174;SDS011;576;48.418;10.074;2024-03-02T13:25:57;4.93;;;2.60;;
1174;SDS011;576;48.418;10.074;2024-03-02T13:28:27;9.20;;;3.20;;
1174;SDS011;576;48.418;10.074;2024-03-02T13:30:55;11.83;;;3.03;;
1174;SDS011;576;48.418;10.074;2024-03-02T13:33:24;5.13;;;2.50;;
1174;SDS011;576;48.418;10.074;2024-03-02T13:35:52;3.80;;;2.90;;
1174;SDS011;576;48.418;10.074;2024-03-02T13:38:21;5.43;;;2.73;;
1174;SDS011;576;48.418;10.074;2024-03-02T13:40:49;3.33;;;2.77;;
1174;SDS011;576;48.418;10.074;2024-03-02T13:43:18;3.97;;;2.90;;
1174;SDS011;576;48.418;10.074;2024-03-02T13:45:48;3.23;;;2.83;;
1174;SDS011;576;48.418;10.074;2024-03-02T13:48:18;3.90;;;2.33;;
1174;SDS011;576;48.418;10.074;2024-03-02T13:50:46;2.40;;;2.20;;
1174;SDS011;576;48.418;10.074;2024-03-02T13:53:15;2.20;;;2.00;;
1174;SDS011;576;48.418;10.074;2024-03-02T13:55:44;2.73;;;2.53;;
1174;SDS011;576;48.418;10.074;2024-03-02T13:58:13;2.37;;;2.27;;
1174;SDS011;576;48.418;10.074;2024-03-02T14:00:41;3.00;;;2.30;;
1174;SDS011;576;48.418;10.074;2024-03-02T14:03:13;3.77;;;2.20;;
1174;SDS011;576;48.418;10.074;2024-03-02T14:05:42;2.10;;;2.00;;
1174;SDS011;576;48.418;10.074;2024-03-02T14:08:12;2.80;;;2.50;;
1174;SDS011;576;48.418;10.074;2024-03-02T14:10:40;2.70;;;2.30;;
1174;SDS011;576;48.418;10.074;2024-03-02T14:13:09;2.20;;;2.10;;
1174;SDS011;576;48.418;10.074;2024-03-02T14:15:37;2.87;;;2.67;;
1174;SDS011;576;48.418;10.074;2024-03-02T14:18:06;2.07;;;1.93;;
1174;SDS011;576;48.418;10.074;2024-03-02T14:20:37;2.07;;;1.80;;
1174;SDS011;576;48.418;10.074;2024-03-02T14:23:08;3.13;;;2.60;;
1174;SDS011;576;48.418;10.074;2024-03-02T14:25:37;2.63;;;2.43;;
1174;SDS011;576;48.418;10.074;2024-03-02T14:28:06;2.83;;;2.47;;
1174;SDS011;576;48.418;10.074;2024-03-02T14:30:54;2.00;;;1.80;;
1174;SDS011;576;48.418;10.074;2024-03-02T14:33:22;2.70;;;2.00;;
1174;SDS011;576;48.418;10.074;2024-03-02T14:35:52;1.83;;;1.60;;
1174;SDS011;576;48.418;10.074;2024-03-02T14:38:20;3.17;;;2.27;;
1174;SDS011;576;48.418;10.074;2024-03-02T14:40:49;1.67;;;1.57;;
1174;SDS011;576;48.418;10.074;2024-03-02T14:43:19;2.03;;;1.90;;
1174;SDS011;576;48.418;10.074;2024-03-02T14:45:47;2.27;;;1.73;;
1174;SDS011;576;48.418;10.074;2024-03-02T14:48:15;2.60;;;2.50;;
1174;SDS011;576;48.418;10.074;2024-03-02T14:50:44;2.53;;;2.33;;
1174;SDS011;576;48.418;10.074;2024-03-02T14:53:13;1.83;;;1.60;;
1174;SDS011;576;48.418;10.074;2024-03-02T14:55:42;2.23;;;2.07;;
1174;SDS011;576;48.418;10.074;2024-03-02T14:58:10;1.70;;;1.60;;
1174;SDS011;576;48.418;10.074;2024-03-02T15:00:38;2.00;;;1.80;;
1174;SDS011;576;48.418;10.074;2024-03-02T15:03:06;2.33;;;2.23;;
1174;SDS011;576;48.418;10.074;2024-03-02T15:05:35;1.70;;;1.60;;
1174;SDS011;576;48.418;10.074;2024-03-02T15:08:04;3.07;;;1.97;;
1174;SDS011;576;48.418;10.074;2024-03-02T15:10:34;2.00;;;1.60;;
1174;SDS011;576;48.418;10.074;2024-03-02T15:13:03;1.83;;;1.73;;
1174;SDS011;576;48.418;10.074;2024-03-02T15:15:31;1.97;;;1.67;;
1174;SDS011;576;48.418;10.074;2024-03-02T15:18:00;2.53;;;1.80;;
1174;SDS011;576;48.418;10.074;2024-03-02T15:20:31;2.30;;;2.10;;
1174;SDS011;576;48.418;10.074;2024-03-02T15:22:59;2.40;;;1.73;;
1174;SDS011;576;48.418;10.074;2024-03-02T15:25:26;2.97;;;1.80;;
1174;SDS011;576;48.418;10.074;2024-03-02T15:27:56;3.37;;;1.90;;
1174;SDS011;576;48.418;10.074;2024-03-02T15:30:24;2.10;;;1.90;;
1174;SDS011;576;48.418;10.074;2024-03-02T15:32:52;1.70;;;1.60;;
1174;SDS011;576;48.418;10.074;2024-03-02T15:35:21;2.07;;;1.90;;